sensor_id;sensor_type;location;lat;lon;timestamp;P1;durP1;ratioP1;P2;durP2;ratioP2
65715;SDS011;63484;52.054;8.518;2022-10-31T00:04:51;27.42;;;10.25;;
65715;SDS011;63484;52.054;8.518;2022-10-31T00:09:52;24.98;;;10.68;;
65715;SDS011;63484;52.054;8.518;2022-10-31T00:14:52;22.70;;;8.82;;
65715;SDS011;63484;52.054;8.518;2022-10-31T00:19:52;17.80;;;8.32;;
65715;SDS011;63484;52.054;8.518;2022-10-31T00:24:53;18.95;;;8.85;;
65715;SDS011;63484;52.054;8.518;2022-10-31T00:29:53;24.30;;;9.57;;
65715;SDS011;63484;52.054;8.518;2022-10-31T00:34:53;24.98;;;10.88;;
65715;SDS011;63484;52.054;8.518;2022-10-31T00:39:54;22.00;;;10.50;;
65715;SDS011;63484;52.054;8.518;2022-10-31T00:44:54;23.90;;;11.00;;
65715;SDS011;63484;52.054;8.518;2022-10-31T00:49:55;22.60;;;10.32;;
65715;SDS011;63484;52.054;8.518;2022-10-31T00:54:55;23.27;;;10.98;;
65715;SDS011;63484;52.054;8.518;2022-10-31T00:59:55;24.05;;;11.60;;
65715;SDS011;63484;52.054;8.518;2022-10-31T01:04:56;23.35;;;11.32;;
65715;SDS011;63484;52.054;8.518;2022-10-31T01:09:56;33.20;;;12.05;;
65715;SDS011;63484;52.054;8.518;2022-10-31T01:14:56;23.98;;;11.00;;
65715;SDS011;63484;52.054;8.518;2022-10-31T01:19:57;22.10;;;11.23;;
65715;SDS011;63484;52.054;8.518;2022-10-31T01:25:00;29.33;;;12.67;;
65715;SDS011;63484;52.054;8.518;2022-10-31T01:30:00;27.90;;;12.38;;
65715;SDS011;63484;52.054;8.518;2022-10-31T01:35:01;26.40;;;12.23;;
65715;SDS011;63484;52.054;8.518;2022-10-31T01:40:02;28.52;;;13.05;;
65715;SDS011;63484;52.054;8.518;2022-10-31T01:45:02;25.70;;;11.98;;
65715;SDS011;63484;52.054;8.518;2022-10-31T01:50:05;35.30;;;12.95;;
65715;SDS011;63484;52.054;8.518;2022-10-31T01:55:13;30.15;;;13.05;;
65715;SDS011;63484;52.054;8.518;2022-10-31T02:00:14;26.85;;;12.07;;
65715;SDS011;63484;52.054;8.518;2022-10-31T02:05:16;29.73;;;11.75;;
65715;SDS011;63484;52.054;8.518;2022-10-31T02:10:20;24.75;;;12.18;;
65715;SDS011;63484;52.054;8.518;2022-10-31T02:15:22;26.63;;;12.43;;
65715;SDS011;63484;52.054;8.518;2022-10-31T02:20:24;30.27;;;11.90;;
65715;SDS011;63484;52.054;8.518;2022-10-31T02:25:36;29.60;;;11.98;;
65715;SDS011;63484;52.054;8.518;2022-10-31T02:36:21;28.65;;;12.40;;
65715;SDS011;63484;52.054;8.518;2022-10-31T02:46:48;27.10;;;12.73;;
65715;SDS011;63484;52.054;8.518;2022-10-31T02:51:53;25.83;;;11.70;;
65715;SDS011;63484;52.054;8.518;2022-10-31T02:56:59;32.13;;;12.05;;
65715;SDS011;63484;52.054;8.518;2022-10-31T03:12:38;29.80;;;13.32;;
65715;SDS011;63484;52.054;8.518;2022-10-31T03:22:56;28.77;;;13.75;;
65715;SDS011;63484;52.054;8.518;2022-10-31T03:27:58;30.15;;;13.35;;
65715;SDS011;63484;52.054;8.518;2022-10-31T03:38:05;25.00;;;13.30;;
65715;SDS011;63484;52.054;8.518;2022-10-31T03:43:08;35.45;;;14.50;;
65715;SDS011;63484;52.054;8.518;2022-10-31T03:48:13;28.35;;;13.35;;
65715;SDS011;63484;52.054;8.518;2022-10-31T03:53:26;28.48;;;14.00;;
65715;SDS011;63484;52.054;8.518;2022-10-31T03:58:55;27.95;;;12.82;;
65715;SDS011;63484;52.054;8.518;2022-10-31T04:04:03;25.00;;;11.95;;
65715;SDS011;63484;52.054;8.518;2022-10-31T04:09:05;39.13;;;13.63;;
65715;SDS011;63484;52.054;8.518;2022-10-31T04:14:08;26.05;;;13.63;;
65715;SDS011;63484;52.054;8.518;2022-10-31T04:19:11;29.58;;;13.65;;
65715;SDS011;63484;52.054;8.518;2022-10-31T04:24:13;24.57;;;12.20;;
65715;SDS011;63484;52.054;8.518;2022-10-31T04:29:15;28.30;;;13.93;;
65715;SDS011;63484;52.054;8.518;2022-10-31T04:34:15;27.58;;;12.70;;
65715;SDS011;63484;52.054;8.518;2022-10-31T04:39:17;28.35;;;12.82;;
65715;SDS011;63484;52.054;8.518;2022-10-31T04:44:40;28.70;;;12.90;;
65715;SDS011;63484;52.054;8.518;2022-10-31T04:49:40;27.27;;;12.80;;
65715;SDS011;63484;52.054;8.518;2022-10-31T04:54:41;32.70;;;13.18;;
65715;SDS011;63484;52.054;8.518;2022-10-31T05:00:02;29.52;;;12.52;;
65715;SDS011;63484;52.054;8.518;2022-10-31T05:05:03;26.85;;;12.50;;
65715;SDS011;63484;52.054;8.518;2022-10-31T05:10:07;24.65;;;11.32;;
65715;SDS011;63484;52.054;8.518;2022-10-31T05:15:12;31.40;;;13.50;;
65715;SDS011;63484;52.054;8.518;2022-10-31T05:20:44;28.20;;;12.80;;
65715;SDS011;63484;52.054;8.518;2022-10-31T05:25:59;26.83;;;13.05;;
65715;SDS011;63484;52.054;8.518;2022-10-31T05:30:59;27.27;;;14.05;;
65715;SDS011;63484;52.054;8.518;2022-10-31T05:36:00;32.13;;;14.27;;
65715;SDS011;63484;52.054;8.518;2022-10-31T05:41:09;27.85;;;12.20;;
65715;SDS011;63484;52.054;8.518;2022-10-31T05:46:09;26.73;;;12.68;;
65715;SDS011;63484;52.054;8.518;2022-10-31T05:51:39;31.98;;;13.75;;
65715;SDS011;63484;52.054;8.518;2022-10-31T05:56:41;26.15;;;12.38;;
65715;SDS011;63484;52.054;8.518;2022-10-31T06:01:43;25.25;;;12.57;;
65715;SDS011;63484;52.054;8.518;2022-10-31T06:06:59;24.10;;;12.85;;
65715;SDS011;63484;52.054;8.518;2022-10-31T06:11:59;21.17;;;11.15;;
65715;SDS011;63484;52.054;8.518;2022-10-31T06:17:00;23.10;;;11.98;;
65715;SDS011;63484;52.054;8.518;2022-10-31T06:22:29;23.10;;;11.27;;
65715;SDS011;63484;52.054;8.518;2022-10-31T06:27:29;25.23;;;11.27;;
65715;SDS011;63484;52.054;8.518;2022-10-31T06:32:32;25.23;;;11.38;;
65715;SDS011;63484;52.054;8.518;2022-10-31T06:37:32;25.45;;;11.90;;
65715;SDS011;63484;52.054;8.518;2022-10-31T06:42:39;25.92;;;12.13;;
65715;SDS011;63484;52.054;8.518;2022-10-31T06:47:40;30.13;;;11.80;;
65715;SDS011;63484;52.054;8.518;2022-10-31T06:57:53;22.10;;;11.07;;
65715;SDS011;63484;52.054;8.518;2022-10-31T07:02:56;29.00;;;11.25;;
65715;SDS011;63484;52.054;8.518;2022-10-31T07:07:59;20.85;;;10.07;;
65715;SDS011;63484;52.054;8.518;2022-10-31T07:13:05;27.67;;;11.20;;
65715;SDS011;63484;52.054;8.518;2022-10-31T07:18:11;27.75;;;11.52;;
65715;SDS011;63484;52.054;8.518;2022-10-31T07:23:13;27.63;;;11.30;;
65715;SDS011;63484;52.054;8.518;2022-10-31T07:28:15;19.63;;;10.55;;
65715;SDS011;63484;52.054;8.518;2022-10-31T07:33:20;21.33;;;10.90;;
65715;SDS011;63484;52.054;8.518;2022-10-31T07:38:43;26.17;;;11.48;;
65715;SDS011;63484;52.054;8.518;2022-10-31T07:43:43;22.80;;;10.52;;
65715;SDS011;63484;52.054;8.518;2022-10-31T07:48:49;23.65;;;10.35;;
65715;SDS011;63484;52.054;8.518;2022-10-31T07:54:19;23.90;;;10.38;;
65715;SDS011;63484;52.054;8.518;2022-10-31T07:59:19;23.65;;;10.93;;
65715;SDS011;63484;52.054;8.518;2022-10-31T08:04:21;21.35;;;10.48;;
65715;SDS011;63484;52.054;8.518;2022-10-31T08:09:40;19.55;;;10.93;;
65715;SDS011;63484;52.054;8.518;2022-10-31T08:14:52;25.63;;;11.73;;
65715;SDS011;63484;52.054;8.518;2022-10-31T08:19:53;24.88;;;12.55;;
65715;SDS011;63484;52.054;8.518;2022-10-31T08:24:58;24.83;;;12.32;;
65715;SDS011;63484;52.054;8.518;2022-10-31T08:29:58;24.65;;;12.13;;
65715;SDS011;63484;52.054;8.518;2022-10-31T08:34:59;23.58;;;12.93;;
65715;SDS011;63484;52.054;8.518;2022-10-31T08:40:18;22.55;;;13.80;;
65715;SDS011;63484;52.054;8.518;2022-10-31T08:45:18;30.90;;;13.30;;
65715;SDS011;63484;52.054;8.518;2022-10-31T08:50:19;27.33;;;13.38;;
65715;SDS011;63484;52.054;8.518;2022-10-31T08:55:21;31.42;;;14.80;;
65715;SDS011;63484;52.054;8.518;2022-10-31T09:00:35;31.10;;;14.10;;
65715;SDS011;63484;52.054;8.518;2022-10-31T09:05:44;26.38;;;12.35;;
65715;SDS011;63484;52.054;8.518;2022-10-31T09:10:46;29.55;;;14.35;;
65715;SDS011;63484;52.054;8.518;2022-10-31T09:20:59;32.65;;;16.00;;
65715;SDS011;63484;52.054;8.518;2022-10-31T09:26:01;37.00;;;15.30;;
65715;SDS011;63484;52.054;8.518;2022-10-31T09:31:17;34.88;;;16.23;;
65715;SDS011;63484;52.054;8.518;2022-10-31T09:36:20;36.10;;;15.67;;
65715;SDS011;63484;52.054;8.518;2022-10-31T09:58:31;28.40;;;14.85;;
65715;SDS011;63484;52.054;8.518;2022-10-31T10:03:37;27.38;;;13.95;;
65715;SDS011;63484;52.054;8.518;2022-10-31T10:09:09;36.88;;;15.77;;
65715;SDS011;63484;52.054;8.518;2022-10-31T10:14:28;38.72;;;14.77;;
65715;SDS011;63484;52.054;8.518;2022-10-31T10:30:31;31.90;;;15.07;;
65715;SDS011;63484;52.054;8.518;2022-10-31T10:35:50;33.35;;;16.38;;
65715;SDS011;63484;52.054;8.518;2022-10-31T10:40:55;31.65;;;15.80;;
65715;SDS011;63484;52.054;8.518;2022-10-31T10:46:16;41.67;;;18.40;;
65715;SDS011;63484;52.054;8.518;2022-10-31T10:57:58;40.63;;;16.65;;
65715;SDS011;63484;52.054;8.518;2022-10-31T11:03:06;33.58;;;16.00;;
65715;SDS011;63484;52.054;8.518;2022-10-31T11:08:06;34.55;;;14.65;;
65715;SDS011;63484;52.054;8.518;2022-10-31T11:18:22;31.42;;;13.82;;
65715;SDS011;63484;52.054;8.518;2022-10-31T11:23:26;25.35;;;12.45;;
65715;SDS011;63484;52.054;8.518;2022-10-31T11:28:29;32.50;;;12.67;;
65715;SDS011;63484;52.054;8.518;2022-10-31T11:38:40;28.95;;;11.95;;
65715;SDS011;63484;52.054;8.518;2022-10-31T11:43:52;25.40;;;12.10;;
65715;SDS011;63484;52.054;8.518;2022-10-31T11:48:55;24.33;;;11.82;;
65715;SDS011;63484;52.054;8.518;2022-10-31T11:53:59;20.88;;;10.48;;
65715;SDS011;63484;52.054;8.518;2022-10-31T11:59:04;26.90;;;11.13;;
